LELN/LEN METAR and TAF weather

Enter ICAO airport designator
Station Type Date Time Source
LELN METAR 2020/09/19 21:30 UTC NOAA

LELN 192130Z AUTO VRB01KT 9999 FEW010 14/14 Q1018


Station Type Date Time Source
LELN Decoded METAR 2020/09/19 21:30 UTC NOAA

Leon / Virgen Del Camino, Spain (LELN) 42-35N 005-39W 914M
Sep 19, 2020 - 05:30 PM EDT / 2020.09.19 2130 UTC
Wind: Variable at 1 MPH (1 KT):0
Visibility: greater than 7 mile(s):0
Sky conditions: mostly clear
Temperature: 57 F (14 C)
Dew Point: 57 F (14 C)
Relative Humidity: 100%
Pressure (altimeter): 30.06 in. Hg (1018 hPa)
ob: LELN 192130Z AUTO VRB01KT 9999 FEW010 14/14 Q1018
cycle: 21

Station Type Date Time Source
LELN TAF 2020/09/19 21:27 UTC NOAA

TAF TAF LELN 192000Z 1921/2021 VRB05KT 9999 SCT030 BKN040 TX18/2016Z TN10/2006Z PROB40
TEMPO 2000/2010 2500 BR DZRA BKN014 PROB30
TEMPO 2003/2006 0250 FG VV001
BECMG 2010/2012 27010KT PROB40
TEMPO 2009/2021 3000 RA SHRA BKN012 SCT030TCU PROB30
TEMPO 2009/2019 3000 SHRAGR SCT025CB

Example: see airport list